sensor_id;sensor_type;location;lat;lon;timestamp;temperature;humidity
7046;DHT22;3564;53.326;10.356;2022-12-10T00:02:10;4.50;97.60
7046;DHT22;3564;53.326;10.356;2022-12-10T00:04:35;4.60;97.50
7046;DHT22;3564;53.326;10.356;2022-12-10T00:07:01;4.60;97.60
7046;DHT22;3564;53.326;10.356;2022-12-10T00:09:29;4.60;97.60
7046;DHT22;3564;53.326;10.356;2022-12-10T00:11:55;4.60;97.80
7046;DHT22;3564;53.326;10.356;2022-12-10T00:14:21;4.60;97.50
7046;DHT22;3564;53.326;10.356;2022-12-10T00:16:46;4.60;97.60
7046;DHT22;3564;53.326;10.356;2022-12-10T00:19:12;4.60;97.60
7046;DHT22;3564;53.326;10.356;2022-12-10T00:21:38;4.60;97.60
7046;DHT22;3564;53.326;10.356;2022-12-10T00:24:04;4.60;97.50
7046;DHT22;3564;53.326;10.356;2022-12-10T00:26:32;4.60;97.50
7046;DHT22;3564;53.326;10.356;2022-12-10T00:29:00;4.60;97.50
7046;DHT22;3564;53.326;10.356;2022-12-10T00:31:29;4.60;97.50
7046;DHT22;3564;53.326;10.356;2022-12-10T00:33:57;4.60;97.50
7046;DHT22;3564;53.326;10.356;2022-12-10T00:36:25;4.60;97.50
7046;DHT22;3564;53.326;10.356;2022-12-10T00:38:52;4.60;97.50
7046;DHT22;3564;53.326;10.356;2022-12-10T00:41:17;4.60;97.60
7046;DHT22;3564;53.326;10.356;2022-12-10T00:43:43;4.60;97.50
7046;DHT22;3564;53.326;10.356;2022-12-10T00:46:10;4.60;97.50
7046;DHT22;3564;53.326;10.356;2022-12-10T00:48:36;4.60;97.50
7046;DHT22;3564;53.326;10.356;2022-12-10T00:51:07;4.60;97.50
7046;DHT22;3564;53.326;10.356;2022-12-10T00:53:35;4.60;97.50
7046;DHT22;3564;53.326;10.356;2022-12-10T00:56:02;4.60;97.50
7046;DHT22;3564;53.326;10.356;2022-12-10T00:58:30;4.60;97.50
7046;DHT22;3564;53.326;10.356;2022-12-10T01:01:19;4.60;97.40
7046;DHT22;3564;53.326;10.356;2022-12-10T01:03:47;4.60;97.50
7046;DHT22;3564;53.326;10.356;2022-12-10T01:06:17;4.60;97.40
7046;DHT22;3564;53.326;10.356;2022-12-10T01:08:44;4.60;97.40
7046;DHT22;3564;53.326;10.356;2022-12-10T01:11:11;4.60;97.40
7046;DHT22;3564;53.326;10.356;2022-12-10T01:13:38;4.60;97.40
7046;DHT22;3564;53.326;10.356;2022-12-10T01:16:05;4.60;97.40
7046;DHT22;3564;53.326;10.356;2022-12-10T01:18:32;4.60;97.30
7046;DHT22;3564;53.326;10.356;2022-12-10T01:21:06;4.60;97.30
7046;DHT22;3564;53.326;10.356;2022-12-10T01:23:37;4.60;97.30
7046;DHT22;3564;53.326;10.356;2022-12-10T01:26:05;4.60;97.30
7046;DHT22;3564;53.326;10.356;2022-12-10T01:28:33;4.60;97.30
7046;DHT22;3564;53.326;10.356;2022-12-10T01:31:21;4.60;97.30
7046;DHT22;3564;53.326;10.356;2022-12-10T01:33:47;4.60;97.30
7046;DHT22;3564;53.326;10.356;2022-12-10T01:38:42;4.60;97.20
7046;DHT22;3564;53.326;10.356;2022-12-10T01:41:15;4.60;97.30
7046;DHT22;3564;53.326;10.356;2022-12-10T01:43:56;4.60;97.30
7046;DHT22;3564;53.326;10.356;2022-12-10T01:46:25;4.60;97.40
7046;DHT22;3564;53.326;10.356;2022-12-10T01:48:52;4.60;97.40
7046;DHT22;3564;53.326;10.356;2022-12-10T01:51:19;4.60;97.50
7046;DHT22;3564;53.326;10.356;2022-12-10T01:53:46;4.60;97.50
7046;DHT22;3564;53.326;10.356;2022-12-10T01:56:13;4.60;97.50
7046;DHT22;3564;53.326;10.356;2022-12-10T01:58:40;4.60;97.60
7046;DHT22;3564;53.326;10.356;2022-12-10T02:01:13;4.60;97.50
7046;DHT22;3564;53.326;10.356;2022-12-10T02:04:11;4.60;97.50
7046;DHT22;3564;53.326;10.356;2022-12-10T02:09:39;4.60;97.40
7046;DHT22;3564;53.326;10.356;2022-12-10T02:12:17;4.60;97.50
7046;DHT22;3564;53.326;10.356;2022-12-10T02:15:06;4.60;97.50
7046;DHT22;3564;53.326;10.356;2022-12-10T02:23:25;4.60;97.40
7046;DHT22;3564;53.326;10.356;2022-12-10T02:28:42;4.60;96.90
7046;DHT22;3564;53.326;10.356;2022-12-10T02:31:15;4.60;96.80
7046;DHT22;3564;53.326;10.356;2022-12-10T02:34:02;4.60;96.80
7046;DHT22;3564;53.326;10.356;2022-12-10T02:36:33;4.60;96.60
7046;DHT22;3564;53.326;10.356;2022-12-10T02:39:02;4.60;96.50
7046;DHT22;3564;53.326;10.356;2022-12-10T02:41:33;4.60;96.40
7046;DHT22;3564;53.326;10.356;2022-12-10T02:44:19;4.60;96.50
7046;DHT22;3564;53.326;10.356;2022-12-10T02:46:47;4.60;96.50
7046;DHT22;3564;53.326;10.356;2022-12-10T02:49:15;4.60;96.50
7046;DHT22;3564;53.326;10.356;2022-12-10T02:51:41;4.60;96.50
7046;DHT22;3564;53.326;10.356;2022-12-10T02:54:43;4.60;96.50
7046;DHT22;3564;53.326;10.356;2022-12-10T03:00:15;4.60;96.40
7046;DHT22;3564;53.326;10.356;2022-12-10T03:11:01;4.60;96.40
7046;DHT22;3564;53.326;10.356;2022-12-10T03:13:35;4.60;96.60
7046;DHT22;3564;53.326;10.356;2022-12-10T03:16:05;4.60;96.60
7046;DHT22;3564;53.326;10.356;2022-12-10T03:18:34;4.60;96.60
7046;DHT22;3564;53.326;10.356;2022-12-10T03:21:04;4.60;96.60
7046;DHT22;3564;53.326;10.356;2022-12-10T03:23:33;4.60;96.60
7046;DHT22;3564;53.326;10.356;2022-12-10T03:26:00;4.60;96.60
7046;DHT22;3564;53.326;10.356;2022-12-10T03:28:32;4.60;96.50
7046;DHT22;3564;53.326;10.356;2022-12-10T03:31:02;4.60;96.50
7046;DHT22;3564;53.326;10.356;2022-12-10T03:33:28;4.60;96.50
7046;DHT22;3564;53.326;10.356;2022-12-10T03:35:56;4.60;96.50
7046;DHT22;3564;53.326;10.356;2022-12-10T03:38:22;4.60;96.50
7046;DHT22;3564;53.326;10.356;2022-12-10T03:40:48;4.60;96.50
7046;DHT22;3564;53.326;10.356;2022-12-10T03:43:14;4.60;96.50
7046;DHT22;3564;53.326;10.356;2022-12-10T03:45:40;4.60;96.50
7046;DHT22;3564;53.326;10.356;2022-12-10T03:48:06;4.60;96.50
7046;DHT22;3564;53.326;10.356;2022-12-10T03:50:32;4.60;96.60
7046;DHT22;3564;53.326;10.356;2022-12-10T03:52:57;4.60;96.60
7046;DHT22;3564;53.326;10.356;2022-12-10T03:55:23;4.60;96.60
7046;DHT22;3564;53.326;10.356;2022-12-10T03:57:48;4.60;96.70
7046;DHT22;3564;53.326;10.356;2022-12-10T04:00:14;4.60;96.60
7046;DHT22;3564;53.326;10.356;2022-12-10T04:02:41;4.60;96.70
7046;DHT22;3564;53.326;10.356;2022-12-10T04:05:10;4.60;96.70
7046;DHT22;3564;53.326;10.356;2022-12-10T04:07:36;4.60;96.60
7046;DHT22;3564;53.326;10.356;2022-12-10T04:10:03;4.60;96.60
7046;DHT22;3564;53.326;10.356;2022-12-10T04:12:30;4.60;96.60
7046;DHT22;3564;53.326;10.356;2022-12-10T04:14:55;4.60;96.60
7046;DHT22;3564;53.326;10.356;2022-12-10T04:17:39;4.60;96.80
7046;DHT22;3564;53.326;10.356;2022-12-10T04:20:05;4.50;96.50
7046;DHT22;3564;53.326;10.356;2022-12-10T04:22:51;4.50;96.60
7046;DHT22;3564;53.326;10.356;2022-12-10T04:25:35;4.50;96.70
7046;DHT22;3564;53.326;10.356;2022-12-10T04:28:21;4.50;96.70
7046;DHT22;3564;53.326;10.356;2022-12-10T04:30:46;4.50;96.80
7046;DHT22;3564;53.326;10.356;2022-12-10T04:33:12;4.50;96.80
7046;DHT22;3564;53.326;10.356;2022-12-10T04:35:37;4.50;96.80
7046;DHT22;3564;53.326;10.356;2022-12-10T04:38:03;4.50;96.80
7046;DHT22;3564;53.326;10.356;2022-12-10T04:40:28;4.60;96.90
7046;DHT22;3564;53.326;10.356;2022-12-10T04:42:55;4.50;96.90
7046;DHT22;3564;53.326;10.356;2022-12-10T04:45:20;4.60;96.90
7046;DHT22;3564;53.326;10.356;2022-12-10T04:47:46;4.60;97.00
7046;DHT22;3564;53.326;10.356;2022-12-10T04:50:11;4.60;96.90
7046;DHT22;3564;53.326;10.356;2022-12-10T04:52:37;4.60;96.80
7046;DHT22;3564;53.326;10.356;2022-12-10T04:55:03;4.60;96.70
7046;DHT22;3564;53.326;10.356;2022-12-10T04:57:28;4.50;96.60
7046;DHT22;3564;53.326;10.356;2022-12-10T04:59:54;4.50;96.60
7046;DHT22;3564;53.326;10.356;2022-12-10T05:02:19;4.50;96.80
7046;DHT22;3564;53.326;10.356;2022-12-10T05:04:45;4.50;96.80
7046;DHT22;3564;53.326;10.356;2022-12-10T05:07:11;4.50;96.80
7046;DHT22;3564;53.326;10.356;2022-12-10T05:09:37;4.50;96.80
7046;DHT22;3564;53.326;10.356;2022-12-10T05:12:03;4.60;96.80
7046;DHT22;3564;53.326;10.356;2022-12-10T05:14:28;4.50;96.80
7046;DHT22;3564;53.326;10.356;2022-12-10T05:16:54;4.60;96.70
7046;DHT22;3564;53.326;10.356;2022-12-10T05:19:20;4.60;96.70
7046;DHT22;3564;53.326;10.356;2022-12-10T05:21:47;4.60;96.80
7046;DHT22;3564;53.326;10.356;2022-12-10T05:24:33;4.50;96.80
7046;DHT22;3564;53.326;10.356;2022-12-10T05:26:59;4.60;96.80
7046;DHT22;3564;53.326;10.356;2022-12-10T05:29:25;4.60;96.80
7046;DHT22;3564;53.326;10.356;2022-12-10T05:31:50;4.60;96.80
7046;DHT22;3564;53.326;10.356;2022-12-10T05:34:16;4.60;96.80
7046;DHT22;3564;53.326;10.356;2022-12-10T05:36:42;4.60;96.80
7046;DHT22;3564;53.326;10.356;2022-12-10T05:39:07;4.60;96.90
7046;DHT22;3564;53.326;10.356;2022-12-10T05:41:35;4.60;96.80
7046;DHT22;3564;53.326;10.356;2022-12-10T05:44:01;4.60;96.60
7046;DHT22;3564;53.326;10.356;2022-12-10T05:46:30;4.60;96.60
7046;DHT22;3564;53.326;10.356;2022-12-10T05:48:56;4.60;96.60
7046;DHT22;3564;53.326;10.356;2022-12-10T05:51:25;4.60;96.70
7046;DHT22;3564;53.326;10.356;2022-12-10T05:53:52;4.60;96.60
7046;DHT22;3564;53.326;10.356;2022-12-10T05:56:20;4.60;96.50
7046;DHT22;3564;53.326;10.356;2022-12-10T05:58:48;4.60;96.50
7046;DHT22;3564;53.326;10.356;2022-12-10T06:01:23;4.60;96.40
7046;DHT22;3564;53.326;10.356;2022-12-10T06:03:49;4.60;96.50
7046;DHT22;3564;53.326;10.356;2022-12-10T06:06:24;4.60;96.50
7046;DHT22;3564;53.326;10.356;2022-12-10T06:08:50;4.60;96.50
7046;DHT22;3564;53.326;10.356;2022-12-10T06:11:17;4.60;96.40
7046;DHT22;3564;53.326;10.356;2022-12-10T06:13:42;4.60;96.30
7046;DHT22;3564;53.326;10.356;2022-12-10T06:16:10;4.60;96.30
7046;DHT22;3564;53.326;10.356;2022-12-10T06:18:36;4.60;96.20
7046;DHT22;3564;53.326;10.356;2022-12-10T06:21:06;4.60;96.20
7046;DHT22;3564;53.326;10.356;2022-12-10T06:23:34;4.60;96.20
7046;DHT22;3564;53.326;10.356;2022-12-10T06:26:04;4.60;96.20
7046;DHT22;3564;53.326;10.356;2022-12-10T06:28:30;4.60;96.30
7046;DHT22;3564;53.326;10.356;2022-12-10T06:30:58;4.60;96.40
7046;DHT22;3564;53.326;10.356;2022-12-10T06:33:25;4.60;96.30
7046;DHT22;3564;53.326;10.356;2022-12-10T06:35:50;4.60;96.20
7046;DHT22;3564;53.326;10.356;2022-12-10T06:38:16;4.60;96.10
7046;DHT22;3564;53.326;10.356;2022-12-10T06:40:42;4.60;96.20
7046;DHT22;3564;53.326;10.356;2022-12-10T06:43:07;4.60;96.20
7046;DHT22;3564;53.326;10.356;2022-12-10T06:45:33;4.60;96.20
7046;DHT22;3564;53.326;10.356;2022-12-10T06:47:59;4.60;96.30
7046;DHT22;3564;53.326;10.356;2022-12-10T06:50:24;4.60;96.30
7046;DHT22;3564;53.326;10.356;2022-12-10T06:52:50;4.60;96.20
7046;DHT22;3564;53.326;10.356;2022-12-10T06:55:16;4.60;96.20
7046;DHT22;3564;53.326;10.356;2022-12-10T06:57:42;4.60;96.10
7046;DHT22;3564;53.326;10.356;2022-12-10T07:00:08;4.60;96.00
7046;DHT22;3564;53.326;10.356;2022-12-10T07:02:36;4.60;96.00
7046;DHT22;3564;53.326;10.356;2022-12-10T07:05:02;4.60;95.90
7046;DHT22;3564;53.326;10.356;2022-12-10T07:07:28;4.60;95.90
7046;DHT22;3564;53.326;10.356;2022-12-10T07:09:54;4.60;95.90
7046;DHT22;3564;53.326;10.356;2022-12-10T07:12:19;4.60;95.80
7046;DHT22;3564;53.326;10.356;2022-12-10T07:14:45;4.60;95.80
7046;DHT22;3564;53.326;10.356;2022-12-10T07:17:10;4.60;95.80
7046;DHT22;3564;53.326;10.356;2022-12-10T07:19:36;4.60;95.80
7046;DHT22;3564;53.326;10.356;2022-12-10T07:22:01;4.60;95.80
7046;DHT22;3564;53.326;10.356;2022-12-10T07:24:27;4.60;95.80
7046;DHT22;3564;53.326;10.356;2022-12-10T07:26:52;4.60;95.90
7046;DHT22;3564;53.326;10.356;2022-12-10T07:29:20;4.60;96.10
7046;DHT22;3564;53.326;10.356;2022-12-10T07:31:47;4.60;96.10
7046;DHT22;3564;53.326;10.356;2022-12-10T07:34:14;4.60;96.10
7046;DHT22;3564;53.326;10.356;2022-12-10T07:36:40;4.60;96.00
7046;DHT22;3564;53.326;10.356;2022-12-10T07:39:08;4.60;96.00
7046;DHT22;3564;53.326;10.356;2022-12-10T07:41:35;4.60;96.00
7046;DHT22;3564;53.326;10.356;2022-12-10T07:44:02;4.60;96.00
7046;DHT22;3564;53.326;10.356;2022-12-10T07:46:31;4.60;95.90
7046;DHT22;3564;53.326;10.356;2022-12-10T07:48:59;4.60;95.90
7046;DHT22;3564;53.326;10.356;2022-12-10T07:51:30;4.60;95.90
7046;DHT22;3564;53.326;10.356;2022-12-10T07:53:56;4.60;96.00
7046;DHT22;3564;53.326;10.356;2022-12-10T07:56:24;4.60;96.00
7046;DHT22;3564;53.326;10.356;2022-12-10T07:58:50;4.60;96.00
7046;DHT22;3564;53.326;10.356;2022-12-10T08:01:19;4.60;95.90
7046;DHT22;3564;53.326;10.356;2022-12-10T08:03:47;4.60;95.90
7046;DHT22;3564;53.326;10.356;2022-12-10T08:06:15;4.60;96.00
7046;DHT22;3564;53.326;10.356;2022-12-10T08:08:43;4.60;96.10
7046;DHT22;3564;53.326;10.356;2022-12-10T08:11:10;4.60;96.10
7046;DHT22;3564;53.326;10.356;2022-12-10T08:13:37;4.60;96.20
7046;DHT22;3564;53.326;10.356;2022-12-10T08:16:03;4.60;96.10
7046;DHT22;3564;53.326;10.356;2022-12-10T08:18:30;4.60;96.10
7046;DHT22;3564;53.326;10.356;2022-12-10T08:20:55;4.60;96.10
7046;DHT22;3564;53.326;10.356;2022-12-10T08:23:21;4.60;96.00
7046;DHT22;3564;53.326;10.356;2022-12-10T08:25:46;4.60;96.00
7046;DHT22;3564;53.326;10.356;2022-12-10T08:28:12;4.60;96.00
7046;DHT22;3564;53.326;10.356;2022-12-10T08:30:38;4.60;96.10
7046;DHT22;3564;53.326;10.356;2022-12-10T08:33:03;4.60;96.00
7046;DHT22;3564;53.326;10.356;2022-12-10T08:35:29;4.70;96.00
7046;DHT22;3564;53.326;10.356;2022-12-10T08:37:54;4.70;96.00
7046;DHT22;3564;53.326;10.356;2022-12-10T08:40:20;4.70;96.10
7046;DHT22;3564;53.326;10.356;2022-12-10T08:42:45;4.70;96.10
7046;DHT22;3564;53.326;10.356;2022-12-10T08:45:11;4.70;96.10
7046;DHT22;3564;53.326;10.356;2022-12-10T08:47:36;4.70;96.20
7046;DHT22;3564;53.326;10.356;2022-12-10T08:50:03;4.70;96.50
7046;DHT22;3564;53.326;10.356;2022-12-10T08:52:29;4.70;96.30
7046;DHT22;3564;53.326;10.356;2022-12-10T08:54:55;4.70;96.50
7046;DHT22;3564;53.326;10.356;2022-12-10T08:57:21;4.70;96.50
7046;DHT22;3564;53.326;10.356;2022-12-10T08:59:46;4.70;96.40
7046;DHT22;3564;53.326;10.356;2022-12-10T09:02:12;4.70;96.40
7046;DHT22;3564;53.326;10.356;2022-12-10T09:04:37;4.70;96.50
7046;DHT22;3564;53.326;10.356;2022-12-10T09:07:05;4.70;96.50
7046;DHT22;3564;53.326;10.356;2022-12-10T09:09:31;4.70;96.60
7046;DHT22;3564;53.326;10.356;2022-12-10T09:11:57;4.70;96.70
7046;DHT22;3564;53.326;10.356;2022-12-10T09:14:23;4.70;96.70
7046;DHT22;3564;53.326;10.356;2022-12-10T09:16:49;4.70;96.80
7046;DHT22;3564;53.326;10.356;2022-12-10T09:19:14;4.70;96.80
7046;DHT22;3564;53.326;10.356;2022-12-10T09:21:40;4.70;96.80
7046;DHT22;3564;53.326;10.356;2022-12-10T09:24:06;4.70;96.80
7046;DHT22;3564;53.326;10.356;2022-12-10T09:26:32;4.70;96.90
7046;DHT22;3564;53.326;10.356;2022-12-10T09:28:57;4.70;96.80
7046;DHT22;3564;53.326;10.356;2022-12-10T09:31:23;4.70;96.80
7046;DHT22;3564;53.326;10.356;2022-12-10T09:33:51;4.70;96.80
7046;DHT22;3564;53.326;10.356;2022-12-10T09:36:18;4.70;96.80
7046;DHT22;3564;53.326;10.356;2022-12-10T09:38:45;4.70;96.80
7046;DHT22;3564;53.326;10.356;2022-12-10T09:44:36;4.70;96.80
7046;DHT22;3564;53.326;10.356;2022-12-10T09:47:06;4.70;96.80
7046;DHT22;3564;53.326;10.356;2022-12-10T09:52:23;4.70;96.90
7046;DHT22;3564;53.326;10.356;2022-12-10T09:54:56;4.70;96.80
7046;DHT22;3564;53.326;10.356;2022-12-10T09:57:31;4.70;96.80
7046;DHT22;3564;53.326;10.356;2022-12-10T10:00:03;4.70;96.80
7046;DHT22;3564;53.326;10.356;2022-12-10T10:02:30;4.70;96.80
7046;DHT22;3564;53.326;10.356;2022-12-10T10:07:38;4.70;96.80
7046;DHT22;3564;53.326;10.356;2022-12-10T10:12:43;4.70;96.80
7046;DHT22;3564;53.326;10.356;2022-12-10T10:15:13;4.70;96.90
7046;DHT22;3564;53.326;10.356;2022-12-10T10:17:39;4.70;96.80
7046;DHT22;3564;53.326;10.356;2022-12-10T10:20:11;4.70;96.80
7046;DHT22;3564;53.326;10.356;2022-12-10T10:22:38;4.70;96.80
7046;DHT22;3564;53.326;10.356;2022-12-10T10:25:05;4.70;96.80
7046;DHT22;3564;53.326;10.356;2022-12-10T10:27:35;4.70;96.80
7046;DHT22;3564;53.326;10.356;2022-12-10T10:30:02;4.70;96.70
7046;DHT22;3564;53.326;10.356;2022-12-10T10:35:00;4.70;96.80
7046;DHT22;3564;53.326;10.356;2022-12-10T10:37:45;4.70;96.70
7046;DHT22;3564;53.326;10.356;2022-12-10T10:40:26;4.70;96.80
7046;DHT22;3564;53.326;10.356;2022-12-10T10:42:55;4.70;96.80
7046;DHT22;3564;53.326;10.356;2022-12-10T10:45:34;4.70;96.80
7046;DHT22;3564;53.326;10.356;2022-12-10T10:50:50;4.70;96.70
7046;DHT22;3564;53.326;10.356;2022-12-10T10:56:10;4.70;96.70
7046;DHT22;3564;53.326;10.356;2022-12-10T10:58:58;4.70;96.70
7046;DHT22;3564;53.326;10.356;2022-12-10T11:04:13;4.70;96.70
7046;DHT22;3564;53.326;10.356;2022-12-10T11:06:41;4.70;96.70
7046;DHT22;3564;53.326;10.356;2022-12-10T11:09:07;4.70;96.70
7046;DHT22;3564;53.326;10.356;2022-12-10T11:11:34;4.70;96.60
7046;DHT22;3564;53.326;10.356;2022-12-10T11:16:49;4.70;96.80
7046;DHT22;3564;53.326;10.356;2022-12-10T11:19:22;4.70;96.80
7046;DHT22;3564;53.326;10.356;2022-12-10T11:21:48;4.80;96.80
7046;DHT22;3564;53.326;10.356;2022-12-10T11:24:17;4.80;96.70
7046;DHT22;3564;53.326;10.356;2022-12-10T11:27:11;4.80;96.60
7046;DHT22;3564;53.326;10.356;2022-12-10T11:40:35;4.80;96.50
7046;DHT22;3564;53.326;10.356;2022-12-10T11:46:30;4.70;96.50
7046;DHT22;3564;53.326;10.356;2022-12-10T11:51:50;4.70;96.40
7046;DHT22;3564;53.326;10.356;2022-12-10T11:58:09;4.70;96.40
7046;DHT22;3564;53.326;10.356;2022-12-10T12:15:01;4.70;96.60
7046;DHT22;3564;53.326;10.356;2022-12-10T12:18:02;4.70;96.60
7046;DHT22;3564;53.326;10.356;2022-12-10T12:20:34;4.70;96.10
7046;DHT22;3564;53.326;10.356;2022-12-10T12:25:55;4.70;96.20
7046;DHT22;3564;53.326;10.356;2022-12-10T12:28:37;4.70;96.20
7046;DHT22;3564;53.326;10.356;2022-12-10T12:31:20;4.70;96.20
7046;DHT22;3564;53.326;10.356;2022-12-10T12:33:59;4.70;96.30
7046;DHT22;3564;53.326;10.356;2022-12-10T12:36:27;4.70;96.40
7046;DHT22;3564;53.326;10.356;2022-12-10T12:39:17;4.70;96.40
7046;DHT22;3564;53.326;10.356;2022-12-10T12:47:56;4.80;96.40
7046;DHT22;3564;53.326;10.356;2022-12-10T12:50:45;4.80;96.20
7046;DHT22;3564;53.326;10.356;2022-12-10T12:53:14;4.80;96.00
7046;DHT22;3564;53.326;10.356;2022-12-10T13:00:40;4.80;96.10
7046;DHT22;3564;53.326;10.356;2022-12-10T13:05:54;4.80;96.10
7046;DHT22;3564;53.326;10.356;2022-12-10T13:13:37;4.80;96.10
7046;DHT22;3564;53.326;10.356;2022-12-10T13:29:28;4.80;95.90
7046;DHT22;3564;53.326;10.356;2022-12-10T13:32:02;4.80;96.00
7046;DHT22;3564;53.326;10.356;2022-12-10T13:34:32;4.80;95.80
7046;DHT22;3564;53.326;10.356;2022-12-10T13:50:05;4.80;95.40
7046;DHT22;3564;53.326;10.356;2022-12-10T13:53:12;4.80;95.30
7046;DHT22;3564;53.326;10.356;2022-12-10T13:56:06;4.70;95.00
7046;DHT22;3564;53.326;10.356;2022-12-10T14:07:16;4.60;95.00
7046;DHT22;3564;53.326;10.356;2022-12-10T14:09:48;4.60;95.20
7046;DHT22;3564;53.326;10.356;2022-12-10T14:12:17;4.60;95.20
7046;DHT22;3564;53.326;10.356;2022-12-10T14:14:52;4.60;95.10
7046;DHT22;3564;53.326;10.356;2022-12-10T14:17:24;4.60;95.10
7046;DHT22;3564;53.326;10.356;2022-12-10T14:19:53;4.60;95.20
7046;DHT22;3564;53.326;10.356;2022-12-10T14:24:59;4.60;95.30
7046;DHT22;3564;53.326;10.356;2022-12-10T14:27:27;4.60;95.20
7046;DHT22;3564;53.326;10.356;2022-12-10T14:29:59;4.60;95.30
7046;DHT22;3564;53.326;10.356;2022-12-10T14:32:31;4.60;95.10
7046;DHT22;3564;53.326;10.356;2022-12-10T14:34:58;4.60;95.10
7046;DHT22;3564;53.326;10.356;2022-12-10T14:37:27;4.70;95.20
7046;DHT22;3564;53.326;10.356;2022-12-10T14:39:53;4.70;95.20
7046;DHT22;3564;53.326;10.356;2022-12-10T14:42:20;4.70;95.20
7046;DHT22;3564;53.326;10.356;2022-12-10T14:45:04;4.60;95.10
7046;DHT22;3564;53.326;10.356;2022-12-10T14:47:39;4.60;95.10
7046;DHT22;3564;53.326;10.356;2022-12-10T14:50:13;4.60;95.00
7046;DHT22;3564;53.326;10.356;2022-12-10T14:52:41;4.60;94.80
7046;DHT22;3564;53.326;10.356;2022-12-10T14:55:15;4.60;94.70
7046;DHT22;3564;53.326;10.356;2022-12-10T14:57:54;4.60;94.80
7046;DHT22;3564;53.326;10.356;2022-12-10T15:00:22;4.60;94.90
7046;DHT22;3564;53.326;10.356;2022-12-10T15:02:53;4.60;94.90
7046;DHT22;3564;53.326;10.356;2022-12-10T15:05:23;4.60;94.90
7046;DHT22;3564;53.326;10.356;2022-12-10T15:07:56;4.60;94.80
7046;DHT22;3564;53.326;10.356;2022-12-10T15:10:37;4.60;94.70
7046;DHT22;3564;53.326;10.356;2022-12-10T15:13:08;4.60;94.80
7046;DHT22;3564;53.326;10.356;2022-12-10T15:15:41;4.60;94.90
7046;DHT22;3564;53.326;10.356;2022-12-10T15:23:30;4.60;94.80
7046;DHT22;3564;53.326;10.356;2022-12-10T15:28:27;4.60;94.70
7046;DHT22;3564;53.326;10.356;2022-12-10T15:33:47;4.60;94.80
7046;DHT22;3564;53.326;10.356;2022-12-10T15:36:43;4.50;94.80
7046;DHT22;3564;53.326;10.356;2022-12-10T15:39:15;4.60;94.90
7046;DHT22;3564;53.326;10.356;2022-12-10T15:44:38;4.60;94.90
7046;DHT22;3564;53.326;10.356;2022-12-10T15:47:15;4.50;94.90
7046;DHT22;3564;53.326;10.356;2022-12-10T15:49:42;4.60;94.90
7046;DHT22;3564;53.326;10.356;2022-12-10T15:52:15;4.60;94.80
7046;DHT22;3564;53.326;10.356;2022-12-10T15:54:44;4.60;94.80
7046;DHT22;3564;53.326;10.356;2022-12-10T15:59:44;4.60;94.80
7046;DHT22;3564;53.326;10.356;2022-12-10T16:04:56;4.60;94.80
7046;DHT22;3564;53.326;10.356;2022-12-10T16:07:22;4.60;94.70
7046;DHT22;3564;53.326;10.356;2022-12-10T16:09:48;4.60;94.80
7046;DHT22;3564;53.326;10.356;2022-12-10T16:12:15;4.60;94.70
7046;DHT22;3564;53.326;10.356;2022-12-10T16:14:47;4.60;94.80
7046;DHT22;3564;53.326;10.356;2022-12-10T16:17:14;4.60;94.70
7046;DHT22;3564;53.326;10.356;2022-12-10T16:19:39;4.60;94.60
7046;DHT22;3564;53.326;10.356;2022-12-10T16:22:05;4.60;94.60
7046;DHT22;3564;53.326;10.356;2022-12-10T16:24:31;4.60;94.50
7046;DHT22;3564;53.326;10.356;2022-12-10T16:26:56;4.60;94.60
7046;DHT22;3564;53.326;10.356;2022-12-10T16:29:22;4.60;94.60
7046;DHT22;3564;53.326;10.356;2022-12-10T16:31:48;4.50;94.50
7046;DHT22;3564;53.326;10.356;2022-12-10T16:34:14;4.50;94.30
7046;DHT22;3564;53.326;10.356;2022-12-10T16:36:43;4.50;94.20
7046;DHT22;3564;53.326;10.356;2022-12-10T16:39:08;4.50;94.20
7046;DHT22;3564;53.326;10.356;2022-12-10T16:41:34;4.50;94.20
7046;DHT22;3564;53.326;10.356;2022-12-10T16:44:00;4.50;94.30
7046;DHT22;3564;53.326;10.356;2022-12-10T16:46:25;4.50;94.30
7046;DHT22;3564;53.326;10.356;2022-12-10T16:48:51;4.50;94.20
7046;DHT22;3564;53.326;10.356;2022-12-10T16:51:28;4.50;94.00
7046;DHT22;3564;53.326;10.356;2022-12-10T16:53:55;4.50;94.00
7046;DHT22;3564;53.326;10.356;2022-12-10T16:56:21;4.50;94.00
7046;DHT22;3564;53.326;10.356;2022-12-10T16:58:47;4.50;94.20
7046;DHT22;3564;53.326;10.356;2022-12-10T17:01:24;4.50;94.50
7046;DHT22;3564;53.326;10.356;2022-12-10T17:03:53;4.50;94.30
7046;DHT22;3564;53.326;10.356;2022-12-10T17:06:20;4.50;94.30
7046;DHT22;3564;53.326;10.356;2022-12-10T17:08:46;4.50;94.20
7046;DHT22;3564;53.326;10.356;2022-12-10T17:13:58;4.50;94.20
7046;DHT22;3564;53.326;10.356;2022-12-10T17:16:24;4.50;94.30
7046;DHT22;3564;53.326;10.356;2022-12-10T17:18:49;4.50;94.20
7046;DHT22;3564;53.326;10.356;2022-12-10T17:21:15;4.50;94.20
7046;DHT22;3564;53.326;10.356;2022-12-10T17:23:40;4.50;94.30
7046;DHT22;3564;53.326;10.356;2022-12-10T17:26:06;4.50;94.30
7046;DHT22;3564;53.326;10.356;2022-12-10T17:28:32;4.50;94.30
7046;DHT22;3564;53.326;10.356;2022-12-10T17:31:00;4.50;94.30
7046;DHT22;3564;53.326;10.356;2022-12-10T17:33:25;4.50;94.20
7046;DHT22;3564;53.326;10.356;2022-12-10T17:35:52;4.50;94.20
7046;DHT22;3564;53.326;10.356;2022-12-10T17:38:20;4.50;94.20
7046;DHT22;3564;53.326;10.356;2022-12-10T17:40:47;4.50;94.20
7046;DHT22;3564;53.326;10.356;2022-12-10T17:43:13;4.50;94.20
7046;DHT22;3564;53.326;10.356;2022-12-10T17:45:40;4.50;94.20
7046;DHT22;3564;53.326;10.356;2022-12-10T17:48:06;4.50;94.30
7046;DHT22;3564;53.326;10.356;2022-12-10T17:50:36;4.50;94.20
7046;DHT22;3564;53.326;10.356;2022-12-10T17:53:04;4.50;94.20
7046;DHT22;3564;53.326;10.356;2022-12-10T17:55:35;4.50;94.20
7046;DHT22;3564;53.326;10.356;2022-12-10T17:58:01;4.50;94.10
7046;DHT22;3564;53.326;10.356;2022-12-10T18:00:31;4.50;94.00
7046;DHT22;3564;53.326;10.356;2022-12-10T18:02:56;4.50;94.00
7046;DHT22;3564;53.326;10.356;2022-12-10T18:05:22;4.50;94.00
7046;DHT22;3564;53.326;10.356;2022-12-10T18:07:48;4.50;93.90
7046;DHT22;3564;53.326;10.356;2022-12-10T18:10:17;4.50;93.80
7046;DHT22;3564;53.326;10.356;2022-12-10T18:12:44;4.50;93.90
7046;DHT22;3564;53.326;10.356;2022-12-10T18:15:11;4.50;94.00
7046;DHT22;3564;53.326;10.356;2022-12-10T18:17:37;4.50;94.00
7046;DHT22;3564;53.326;10.356;2022-12-10T18:20:04;4.50;93.90
7046;DHT22;3564;53.326;10.356;2022-12-10T18:22:30;4.50;94.00
7046;DHT22;3564;53.326;10.356;2022-12-10T18:24:55;4.50;94.00
7046;DHT22;3564;53.326;10.356;2022-12-10T18:27:21;4.50;93.90
7046;DHT22;3564;53.326;10.356;2022-12-10T18:29:47;4.50;93.80
7046;DHT22;3564;53.326;10.356;2022-12-10T18:32:13;4.50;93.80
7046;DHT22;3564;53.326;10.356;2022-12-10T18:34:38;4.50;93.70
7046;DHT22;3564;53.326;10.356;2022-12-10T18:37:04;4.50;93.70
7046;DHT22;3564;53.326;10.356;2022-12-10T18:39:30;4.40;93.60
7046;DHT22;3564;53.326;10.356;2022-12-10T18:41:59;4.40;93.50
7046;DHT22;3564;53.326;10.356;2022-12-10T18:44:25;4.40;93.50
7046;DHT22;3564;53.326;10.356;2022-12-10T18:46:54;4.40;93.50
7046;DHT22;3564;53.326;10.356;2022-12-10T18:49:21;4.40;93.40
7046;DHT22;3564;53.326;10.356;2022-12-10T18:51:47;4.40;93.40
7046;DHT22;3564;53.326;10.356;2022-12-10T18:54:13;4.40;93.50
7046;DHT22;3564;53.326;10.356;2022-12-10T18:56:40;4.40;93.50
7046;DHT22;3564;53.326;10.356;2022-12-10T18:59:12;4.40;93.60
7046;DHT22;3564;53.326;10.356;2022-12-10T19:01:38;4.40;93.80